createdAt,value
2022-11-21T11:26:28.964Z,100210.34
2022-11-21T11:29:14.639Z,100205.41
2022-11-21T11:31:46.012Z,100192.53
2022-11-21T11:34:16.616Z,100182.13
2022-11-21T11:36:56.818Z,100178.69
2022-11-21T11:39:41.295Z,100168.25
2022-11-21T11:43:06.660Z,100163.66
2022-11-21T11:46:17.740Z,100155.06
2022-11-21T11:49:11.468Z,100154.75
2022-11-21T11:54:10.170Z,100135.41
2022-11-21T11:56:39.769Z,100127.19
2022-11-21T11:59:18.092Z,100128.91
2022-11-21T12:01:54.855Z,100119.75
2022-11-21T12:04:26.560Z,100115.97
2022-11-21T12:10:00.839Z,100101.63
2022-11-21T12:12:35.470Z,100099.56
2022-11-21T12:15:29.580Z,100101.63
2022-11-21T12:18:13.083Z,100093.75
2022-11-21T12:20:53.801Z,100091.03
2022-11-21T12:23:23.402Z,100094.56
2022-11-21T12:26:10.872Z,100078.81
2022-11-21T12:28:54.280Z,100072.66
2022-11-21T12:31:31.203Z,100065.34
2022-11-21T12:34:12.805Z,100059.34
2022-11-21T12:36:48.029Z,100050.00
2022-11-21T12:39:55.226Z,100049.66
2022-11-21T12:42:48.260Z,100043.84
2022-11-21T12:45:34.985Z,100041.66
2022-11-21T12:48:40.268Z,100030.03
2022-11-21T12:51:59.275Z,100022.03
2022-11-21T12:55:03.834Z,100019.34
2022-11-21T12:57:51.233Z,100018.69
2022-11-21T13:00:29.173Z,100016.03
2022-11-21T13:03:34.262Z,100003.72
2022-11-21T13:06:06.270Z,99987.56
2022-11-21T13:08:38.496Z,99986.56
2022-11-21T13:11:27.876Z,99984.41
2022-11-21T13:14:08.489Z,99973.75
2022-11-21T13:16:44.359Z,99968.75
2022-11-21T13:19:24.845Z,99968.06
2022-11-21T13:21:55.161Z,99954.78
2022-11-21T13:24:58.169Z,99952.44
2022-11-21T13:27:36.727Z,99943.09
2022-11-21T13:30:25.430Z,99921.47
2022-11-21T13:32:55.588Z,99918.81
2022-11-21T13:35:57.866Z,99921.34
2022-11-21T13:38:26.876Z,99905.50
2022-11-21T13:41:08.747Z,99900.34
2022-11-21T13:43:37.400Z,99893.34
2022-11-21T13:46:08.823Z,99881.22
2022-11-21T13:49:04.225Z,99878.41
2022-11-21T13:51:54.585Z,99895.88
2022-11-21T13:55:05.001Z,99888.56
2022-11-21T13:57:50.806Z,99889.53
2022-11-21T14:05:02.437Z,99887.84
2022-11-21T14:07:36.114Z,99873.72
2022-11-21T14:10:19.300Z,99882.19
2022-11-21T14:12:51.858Z,99872.56
2022-11-21T14:15:30.641Z,99863.28
2022-11-21T14:18:00.877Z,99857.44
2022-11-21T14:20:51.519Z,99852.28
2022-11-21T14:23:23.423Z,99836.66
2022-11-21T14:25:55.436Z,99835.66
2022-11-21T14:28:27.881Z,99831.84
2022-11-21T14:31:01.278Z,99828.19
2022-11-21T14:33:33.603Z,99829.50
2022-11-21T14:36:11.184Z,99831.34
2022-11-21T14:38:45.284Z,99822.00
2022-11-21T14:41:30.009Z,99816.38
2022-11-21T14:44:17.663Z,99815.88
2022-11-21T14:46:48.029Z,99818.34
2022-11-21T14:49:28.559Z,99800.91
2022-11-21T14:52:19.500Z,99801.72
2022-11-21T14:55:28.034Z,99794.44
2022-11-21T14:57:44.750Z,99796.41
2022-11-21T15:03:21.860Z,99792.75
2022-11-21T15:06:08.223Z,99791.09
2022-11-21T15:09:18.364Z,99782.78
2022-11-21T15:11:37.492Z,99782.09
2022-11-21T15:14:19.708Z,99776.81
2022-11-21T15:16:50.752Z,99768.81
2022-11-21T15:19:23.488Z,99764.81
2022-11-21T15:21:54.355Z,99757.19
2022-11-21T15:24:41.139Z,99747.03
2022-11-21T15:27:32.644Z,99745.38
2022-11-21T15:30:25.081Z,99739.91
2022-11-21T15:33:12.429Z,99736.56
2022-11-21T15:35:51.652Z,99726.22
2022-11-21T15:38:27.694Z,99706.13
2022-11-21T15:41:23.764Z,99709.28
2022-11-21T15:43:54.983Z,99701.97
2022-11-21T15:46:26.135Z,99696.66
2022-11-21T15:48:56.943Z,99696.66
2022-11-21T15:51:59.625Z,99701.97
2022-11-21T15:54:21.549Z,99696.16
2022-11-21T15:56:52.337Z,99683.34
2022-11-21T15:59:21.196Z,99685.03
2022-11-21T16:01:49.786Z,99678.06
2022-11-21T16:04:23.891Z,99677.69
2022-11-21T16:06:54.194Z,99688.34
2022-11-21T16:09:23.136Z,99679.06
2022-11-21T16:11:53.703Z,99686.03
2022-11-21T16:14:22.459Z,99686.38
2022-11-21T16:16:51.033Z,99684.03
2022-11-21T16:19:19.696Z,99678.53
2022-11-21T16:21:48.332Z,99677.72
2022-11-21T16:24:16.994Z,99671.41
2022-11-21T16:26:46.941Z,99661.59
2022-11-21T16:29:17.856Z,99650.13
2022-11-21T16:31:47.157Z,99646.47
2022-11-21T16:34:20.283Z,99648.63
2022-11-21T16:36:48.930Z,99633.88
2022-11-21T16:39:29.604Z,99636.84
2022-11-21T16:41:58.941Z,99621.88
2022-11-21T16:44:32.357Z,99632.03
2022-11-21T16:47:05.187Z,99618.91
2022-11-21T16:49:42.264Z,99609.94
2022-11-21T16:52:10.972Z,99600.28
2022-11-21T16:54:39.690Z,99594.31
2022-11-21T16:57:08.451Z,99583.06
2022-11-21T16:59:39.191Z,99586.06
2022-11-21T17:02:08.370Z,99587.19
2022-11-21T17:04:40.109Z,99584.06
2022-11-21T17:07:08.907Z,99585.38
2022-11-21T17:09:37.632Z,99575.94
2022-11-21T17:12:07.567Z,99584.56
2022-11-21T17:18:02.150Z,99556.00
2022-11-21T17:20:30.793Z,99553.84
2022-11-21T17:22:59.993Z,99545.88
2022-11-21T17:25:28.657Z,99539.72
2022-11-21T17:28:00.069Z,99539.91
2022-11-21T17:30:30.935Z,99533.28
2022-11-21T17:33:01.496Z,99534.75
2022-11-21T17:35:30.173Z,99519.31
2022-11-21T17:37:58.924Z,99518.34
2022-11-21T17:40:27.584Z,99518.50
2022-11-21T17:42:56.296Z,99516.66
2022-11-21T17:45:24.960Z,99505.06
2022-11-21T17:47:55.560Z,99504.41
2022-11-21T17:50:24.268Z,99497.41
2022-11-21T17:52:52.944Z,99498.09
2022-11-21T17:55:21.661Z,99492.09
2022-11-21T17:57:50.315Z,99492.09
2022-11-21T18:00:19.325Z,99485.13
2022-11-21T18:02:48.097Z,99481.47
2022-11-21T18:05:18.759Z,99476.16
2022-11-21T18:07:48.071Z,99476.84
2022-11-21T18:10:41.714Z,99474.34
2022-11-21T18:13:08.793Z,99472.84
2022-11-21T18:15:37.492Z,99473.88
2022-11-21T18:18:06.666Z,99475.03
2022-11-21T18:20:37.345Z,99465.41
2022-11-21T18:23:21.244Z,99462.06
2022-11-21T18:34:37.396Z,99434.06
2022-11-21T18:37:18.668Z,99433.03
2022-11-21T18:40:45.280Z,99424.41
2022-11-21T18:44:21.639Z,99431.03
2022-11-21T18:46:56.619Z,99423.72
2022-11-21T18:49:27.520Z,99423.88
2022-11-21T18:51:59.021Z,99424.69
2022-11-21T18:54:27.799Z,99415.41
2022-11-21T18:56:56.754Z,99418.06
2022-11-21T18:59:28.104Z,99410.75
2022-11-21T19:01:57.757Z,99404.78
2022-11-21T19:04:27.943Z,99396.50
2022-11-21T19:06:58.723Z,99401.16
2022-11-21T19:09:32.337Z,99401.50
2022-11-21T19:12:01.685Z,99394.53
2022-11-21T19:14:30.719Z,99390.38
2022-11-21T19:16:59.687Z,99392.16
2022-11-21T19:19:36.265Z,99387.66
2022-11-21T19:22:07.152Z,99392.03
2022-11-21T19:25:28.376Z,99382.22
2022-11-21T19:27:58.392Z,99374.47
2022-11-21T19:30:27.688Z,99375.94
2022-11-21T19:32:56.722Z,99383.91
2022-11-21T19:35:25.589Z,99369.69
2022-11-21T19:37:56.251Z,99376.13
2022-11-21T19:40:24.949Z,99376.94
2022-11-21T19:42:53.747Z,99363.53
2022-11-21T19:45:22.467Z,99364.38
2022-11-21T19:47:56.290Z,99365.03
2022-11-21T19:50:26.401Z,99364.53
2022-11-21T19:52:57.006Z,99361.75
2022-11-21T19:55:28.134Z,99363.06
2022-11-21T19:57:56.958Z,99357.56
2022-11-21T20:00:28.030Z,99344.47
2022-11-21T20:02:56.671Z,99351.13
2022-11-21T20:05:25.437Z,99343.97
2022-11-21T20:08:02.985Z,99341.00
2022-11-21T20:10:34.755Z,99335.53
2022-11-21T20:13:03.732Z,99318.63
2022-11-21T20:15:32.490Z,99313.47
2022-11-21T20:18:01.134Z,99313.97
2022-11-21T20:20:29.786Z,99302.88
2022-11-21T20:23:00.483Z,99294.41
2022-11-21T20:25:29.077Z,99291.59
2022-11-21T20:27:57.737Z,99290.56
2022-11-21T20:30:27.169Z,99285.09
2022-11-21T20:32:55.799Z,99290.09
2022-11-21T20:35:24.509Z,99291.13
2022-11-21T20:37:53.091Z,99281.97
2022-11-21T20:40:23.607Z,99277.81
2022-11-21T20:42:53.979Z,99279.13
2022-11-21T20:48:14.659Z,99273.66
2022-11-21T20:53:51.925Z,99271.50
2022-11-21T20:56:24.830Z,99267.72
2022-11-21T20:58:53.441Z,99268.47
2022-11-21T21:01:23.572Z,99258.91
2022-11-21T21:03:52.540Z,99261.56
2022-11-21T21:06:23.428Z,99262.88
2022-11-21T21:08:53.027Z,99247.97
2022-11-21T21:11:50.240Z,99247.00
2022-11-21T21:14:13.729Z,99246.00
2022-11-21T21:16:42.373Z,99241.31
2022-11-21T21:19:11.047Z,99246.13
2022-11-21T21:21:40.975Z,99248.28
2022-11-21T21:24:12.553Z,99232.34
2022-11-21T21:26:45.775Z,99237.03
2022-11-21T21:29:19.127Z,99226.25
2022-11-21T21:31:51.660Z,99228.75
2022-11-21T21:34:21.688Z,99220.81
2022-11-21T21:36:50.750Z,99220.75
2022-11-21T21:39:19.870Z,99230.72
2022-11-21T21:41:50.499Z,99215.78
2022-11-21T21:44:19.216Z,99214.28
2022-11-21T21:46:47.863Z,99204.50
2022-11-21T21:49:16.551Z,99210.66
2022-11-21T21:51:45.147Z,99212.66
2022-11-21T21:54:19.537Z,99209.81
2022-11-21T21:56:51.197Z,99216.78
2022-11-21T21:59:20.004Z,99208.94
2022-11-21T22:01:48.786Z,99210.16
2022-11-21T22:04:17.450Z,99197.69
2022-11-21T22:06:46.065Z,99199.88
2022-11-21T22:09:14.762Z,99197.66
2022-11-21T22:11:43.472Z,99202.19
2022-11-21T22:14:16.968Z,99195.69
2022-11-21T22:16:45.840Z,99205.69
2022-11-21T22:19:14.896Z,99197.88
2022-11-21T22:21:43.648Z,99194.53
2022-11-21T22:24:31.080Z,99196.88
2022-11-21T22:27:00.222Z,99183.75
2022-11-21T22:29:31.368Z,99177.63
2022-11-21T22:32:00.328Z,99182.09
2022-11-21T22:34:29.634Z,99172.81
2022-11-21T22:36:58.827Z,99178.78
2022-11-21T22:39:27.965Z,99177.50
2022-11-21T22:41:59.847Z,99173.66
2022-11-21T22:44:30.868Z,99172.66
2022-11-21T22:47:00.002Z,99165.34
2022-11-21T22:49:29.022Z,99163.19
2022-11-21T22:51:57.999Z,99166.16
2022-11-21T22:54:27.438Z,99159.97
2022-11-21T22:56:56.438Z,99167.28
2022-11-21T22:59:25.734Z,99170.59
2022-11-21T23:01:56.298Z,99170.94
2022-11-21T23:04:24.965Z,99159.66
2022-11-21T23:06:53.550Z,99158.50
2022-11-21T23:09:22.213Z,99153.50
2022-11-21T23:11:50.928Z,99156.72
2022-11-21T23:14:20.048Z,99152.69
2022-11-21T23:16:48.696Z,99146.13
2022-11-21T23:19:19.329Z,99129.75
2022-11-21T23:21:47.961Z,99135.94
2022-11-21T23:24:16.658Z,99139.06
2022-11-21T23:26:45.357Z,99132.03
2022-11-21T23:29:14.084Z,99134.22
2022-11-21T23:31:42.750Z,99140.06
2022-11-21T23:34:11.973Z,99136.09
2022-11-21T23:36:42.556Z,99139.53
2022-11-21T23:39:11.199Z,99145.06
2022-11-21T23:41:40.025Z,99147.19
2022-11-21T23:44:08.804Z,99148.03
2022-11-21T23:46:37.480Z,99156.00
2022-11-21T23:49:06.148Z,99164.53
2022-11-21T23:51:34.858Z,99159.28
2022-11-21T23:54:05.827Z,99149.91
2022-11-21T23:56:34.767Z,99152.50
2022-11-21T23:59:03.431Z,99152.00
